Time;durP1;ratioP1;P1;durP2;ratioP2;P2;SDS_P1;SDS_P2;PMS_P1;PMS_P2;Temp;Humidity;BMP_temperature;BMP_pressure;BME280_temperature;BME280_humidity;BME280_pressure;Samples;Min_cycle;Max_cycle;Signal;HPM_P1;HPM_P2
2022/01/01 00:02:15;;;;;;;;;;;16.40;99.90;;;;;;5077517;28;909;-45
2022/01/01 00:04:42;;;;;;;;;;;16.40;99.90;;;;;;5077220;28;828;-55
2022/01/01 00:07:09;;;;;;;;;;;16.40;99.90;;;;;;5078268;28;868;-55
2022/01/01 00:09:35;;;;;;;;;;;16.40;99.90;;;;;;5077611;28;1773;-55
2022/01/01 00:12:01;;;;;;;;;;;16.40;99.90;;;;;;5077839;28;978;-55
2022/01/01 00:14:31;;;;;;;;;;;16.40;99.90;;;;;;5078355;28;746;-55
2022/01/01 00:16:58;;;;;;;;;;;16.40;99.90;;;;;;5077796;28;1898;-56
2022/01/01 00:19:24;;;;;;;;;;;16.40;99.90;;;;;;5077451;28;1036;-56
2022/01/01 00:21:51;;;;;;;;;;;16.40;99.90;;;;;;5077840;28;876;-56
2022/01/01 00:24:17;;;;;;;;;;;16.40;99.90;;;;;;5078103;28;841;-55
2022/01/01 00:26:43;;;;;;;;;;;16.40;99.90;;;;;;5077717;28;777;-45
2022/01/01 00:29:09;;;;;;;;;;;16.40;99.90;;;;;;5077881;28;791;-45
2022/01/01 00:31:35;;;;;;;;;;;16.40;99.90;;;;;;5077669;28;840;-45
2022/01/01 00:34:01;;;;;;;;;;;16.30;99.90;;;;;;5076551;28;841;-45
2022/01/01 00:36:29;;;;;;;;;;;16.30;99.90;;;;;;5077816;28;1975;-45
2022/01/01 00:38:55;;;;;;;;;;;16.30;99.90;;;;;;5077755;28;766;-45
2022/01/01 00:41:21;;;;;;;;;;;16.30;99.90;;;;;;5077469;28;765;-55
2022/01/01 00:43:47;;;;;;;;;;;16.30;99.90;;;;;;5076120;28;958;-55
2022/01/01 00:46:13;;;;;;;;;;;16.30;99.90;;;;;;5077457;28;808;-55
2022/01/01 00:48:39;;;;;;;;;;;16.30;99.90;;;;;;5077383;28;937;-55
2022/01/01 00:51:05;;;;;;;;;;;16.30;99.90;;;;;;5077513;28;864;-55
2022/01/01 00:53:31;;;;;;;;;;;16.30;99.90;;;;;;5077065;28;1024;-45
2022/01/01 00:55:58;;;;;;;;;;;16.30;99.90;;;;;;5076761;28;845;-45
2022/01/01 00:58:26;;;;;;;;;;;16.30;99.90;;;;;;5075954;28;1902;-46
2022/01/01 01:00:52;;;;;;;;;;;16.20;99.90;;;;;;5077154;28;880;-45
2022/01/01 01:03:18;;;;;;;;;;;16.20;99.90;;;;;;5077053;28;834;-45
2022/01/01 01:05:46;;;;;;;;;;;16.20;99.90;;;;;;5076097;28;1065;-45
2022/01/01 01:08:14;;;;;;;;;;;16.20;99.90;;;;;;5076900;28;840;-45
2022/01/01 01:10:44;;;;;;;;;;;16.20;99.90;;;;;;5077242;28;933;-55
2022/01/01 01:13:13;;;;;;;;;;;16.20;99.90;;;;;;5076838;28;845;-45
2022/01/01 01:15:40;;;;;;;;;;;16.20;99.90;;;;;;5077054;28;848;-45
2022/01/01 01:18:08;;;;;;;;;;;16.20;99.90;;;;;;5074646;28;1901;-49
2022/01/01 01:20:33;;;;;;;;;;;16.20;99.90;;;;;;5076642;28;798;-45
2022/01/01 01:23:00;;;;;;;;;;;16.20;99.90;;;;;;5076808;28;776;-56
2022/01/01 01:25:29;;;;;;;;;;;16.20;99.90;;;;;;5076004;28;1300;-55
2022/01/01 01:28:04;;;;;;;;;;;16.20;99.90;;;;;;5076587;28;784;-55
2022/01/01 01:30:30;;;;;;;;;;;16.20;99.90;;;;;;5076504;28;852;-56
2022/01/01 01:32:56;;;;;;;;;;;16.20;99.90;;;;;;5076753;28;801;-55
2022/01/01 01:35:22;;;;;;;;;;;16.20;99.90;;;;;;5076186;28;774;-55
2022/01/01 01:37:48;;;;;;;;;;;16.10;99.90;;;;;;5092196;28;1898;-55
2022/01/01 01:40:16;;;;;;;;;;;16.10;99.90;;;;;;5076315;28;762;-55
2022/01/01 01:42:44;;;;;;;;;;;16.20;99.90;;;;;;5076115;28;821;-45
2022/01/01 01:45:15;;;;;;;;;;;16.10;99.90;;;;;;5076147;28;983;-45
2022/01/01 01:47:42;;;;;;;;;;;16.10;99.90;;;;;;5076250;28;967;-45
2022/01/01 01:50:11;;;;;;;;;;;16.10;99.90;;;;;;5054013;28;900;-45
2022/01/01 01:52:38;;;;;;;;;;;16.10;99.90;;;;;;5075917;28;1199;-45
2022/01/01 01:55:06;;;;;;;;;;;16.10;99.90;;;;;;5070748;28;1285;-45
2022/01/01 01:57:33;;;;;;;;;;;16.10;99.90;;;;;;5072035;28;1905;-45
2022/01/01 01:59:59;;;;;;;;;;;16.10;99.90;;;;;;5072151;28;883;-45
2022/01/01 02:02:25;;;;;;;;;;;16.10;99.90;;;;;;5076256;28;872;-56
2022/01/01 02:04:51;;;;;;;;;;;16.10;99.90;;;;;;5074262;28;1344;-55
2022/01/01 02:07:18;;;;;;;;;;;16.10;99.90;;;;;;5074399;28;1361;-57
2022/01/01 02:09:45;;;;;;;;;;;16.10;99.90;;;;;;5075543;28;882;-55
2022/01/01 02:12:12;;;;;;;;;;;16.10;99.90;;;;;;5075688;28;871;-56
2022/01/01 02:17:24;;;;;;;;;;;16.10;99.90;;;;;;5076089;28;1901;-56
2022/01/01 02:20:12;;;;;;;;;;;16.10;99.90;;;;;;5075911;28;1059;-56
2022/01/01 02:22:47;;;;;;;;;;;16.10;99.90;;;;;;5075440;28;1205;-56
2022/01/01 02:25:15;;;;;;;;;;;16.10;99.90;;;;;;5074718;28;1143;-56
2022/01/01 02:27:43;;;;;;;;;;;16.10;99.90;;;;;;5075826;28;908;-56
2022/01/01 02:30:11;;;;;;;;;;;16.10;99.90;;;;;;5075878;28;761;-47
2022/01/01 02:32:37;;;;;;;;;;;16.00;99.90;;;;;;5075988;28;848;-45
2022/01/01 02:35:04;;;;;;;;;;;16.00;99.90;;;;;;5075546;28;880;-45
2022/01/01 02:37:31;;;;;;;;;;;16.00;99.90;;;;;;5075783;28;1906;-45
2022/01/01 02:39:57;;;;;;;;;;;16.00;99.90;;;;;;5075332;28;967;-45
2022/01/01 02:42:24;;;;;;;;;;;15.90;99.90;;;;;;5075454;28;888;-45
2022/01/01 02:44:51;;;;;;;;;;;15.90;99.90;;;;;;5075677;28;841;-45
2022/01/01 02:47:18;;;;;;;;;;;15.90;99.90;;;;;;5075523;28;880;-45
2022/01/01 02:49:45;;;;;;;;;;;15.90;99.90;;;;;;5074694;28;951;-45
2022/01/01 02:52:11;;;;;;;;;;;15.90;99.90;;;;;;5075469;28;1192;-45
2022/01/01 02:54:37;;;;;;;;;;;15.90;99.90;;;;;;5074517;28;912;-45
2022/01/01 02:57:03;;;;;;;;;;;15.90;99.90;;;;;;5075276;28;1905;-45
2022/01/01 02:59:29;;;;;;;;;;;15.90;99.90;;;;;;5075503;28;750;-46
2022/01/01 03:01:55;;;;;;;;;;;15.80;99.90;;;;;;5075361;28;1324;-45
2022/01/01 03:04:21;;;;;;;;;;;15.80;99.90;;;;;;5075238;28;919;-45
2022/01/01 03:06:54;;;;;;;;;;;15.80;99.90;;;;;;5075732;28;785;-45
2022/01/01 03:09:22;;;;;;;;;;;15.80;99.90;;;;;;5070984;28;980;-45
2022/01/01 03:11:49;;;;;;;;;;;15.80;99.90;;;;;;5075189;28;792;-45
2022/01/01 03:14:17;;;;;;;;;;;15.80;99.90;;;;;;5075495;28;815;-45
2022/01/01 03:16:45;;;;;;;;;;;15.80;99.90;;;;;;5075281;28;1973;-45
2022/01/01 03:19:13;;;;;;;;;;;15.80;99.90;;;;;;5057497;28;947;-45
2022/01/01 03:21:39;;;;;;;;;;;15.80;99.90;;;;;;5079019;28;884;-45
2022/01/01 03:24:06;;;;;;;;;;;15.70;99.90;;;;;;5077446;28;905;-45
2022/01/01 03:26:32;;;;;;;;;;;15.70;99.90;;;;;;5076909;28;1387;-45
2022/01/01 03:28:58;;;;;;;;;;;15.70;99.90;;;;;;5078719;28;1505;-45
2022/01/01 03:31:25;;;;;;;;;;;15.70;99.90;;;;;;5078479;28;904;-45
2022/01/01 03:33:52;;;;;;;;;;;15.70;99.90;;;;;;5078622;28;805;-45
2022/01/01 03:36:19;;;;;;;;;;;15.70;99.90;;;;;;5079189;28;1059;-45
2022/01/01 03:38:47;;;;;;;;;;;15.70;99.90;;;;;;5078802;28;1981;-45
2022/01/01 03:41:15;;;;;;;;;;;15.70;99.90;;;;;;5078573;28;869;-45
2022/01/01 03:43:41;;;;;;;;;;;15.60;99.90;;;;;;5078719;28;848;-45
2022/01/01 03:46:07;;;;;;;;;;;15.60;99.90;;;;;;5077127;28;939;-45
2022/01/01 03:48:33;;;;;;;;;;;15.60;99.90;;;;;;5078346;28;823;-45
2022/01/01 03:50:58;;;;;;;;;;;15.60;99.90;;;;;;5078624;28;828;-45
2022/01/01 03:53:25;;;;;;;;;;;15.60;99.90;;;;;;5073723;28;1419;-45
2022/01/01 03:55:51;;;;;;;;;;;15.60;99.90;;;;;;5077943;28;908;-45
2022/01/01 03:58:19;;;;;;;;;;;15.60;99.90;;;;;;5078448;28;1967;-45
2022/01/01 04:00:46;;;;;;;;;;;15.60;99.90;;;;;;5077881;28;1025;-45
2022/01/01 04:03:24;;;;;;;;;;;15.50;99.90;;;;;;5073294;28;841;-45
2022/01/01 04:05:51;;;;;;;;;;;15.60;99.90;;;;;;5074585;28;838;-45
2022/01/01 04:08:17;;;;;;;;;;;15.60;99.90;;;;;;5077660;28;785;-45
2022/01/01 04:10:43;;;;;;;;;;;15.50;99.90;;;;;;5075563;28;1186;-45
2022/01/01 04:13:10;;;;;;;;;;;15.60;99.90;;;;;;5078008;28;856;-45
2022/01/01 04:15:36;;;;;;;;;;;15.50;99.90;;;;;;5078269;28;792;-45
2022/01/01 04:18:08;;;;;;;;;;;15.50;99.90;;;;;;5077896;28;1971;-45
2022/01/01 04:20:34;;;;;;;;;;;15.50;99.90;;;;;;5078055;28;1044;-45
2022/01/01 04:23:00;;;;;;;;;;;15.50;99.90;;;;;;5077957;28;801;-45
2022/01/01 04:25:26;;;;;;;;;;;15.50;99.90;;;;;;5078093;28;936;-45
2022/01/01 04:27:55;;;;;;;;;;;15.50;99.90;;;;;;5077268;28;924;-45
2022/01/01 04:30:22;;;;;;;;;;;15.50;99.90;;;;;;5077799;28;825;-45
2022/01/01 04:32:49;;;;;;;;;;;15.50;99.90;;;;;;5076969;28;855;-45
2022/01/01 04:35:16;;;;;;;;;;;15.50;99.90;;;;;;5076115;28;907;-45
2022/01/01 04:37:42;;;;;;;;;;;15.50;99.90;;;;;;5077682;28;1905;-45
2022/01/01 04:40:09;;;;;;;;;;;15.50;99.90;;;;;;5075097;28;877;-45
2022/01/01 04:42:35;;;;;;;;;;;15.50;99.90;;;;;;5066488;28;967;-45
2022/01/01 04:45:01;;;;;;;;;;;15.50;99.90;;;;;;5055373;28;1413;-45
2022/01/01 04:47:27;;;;;;;;;;;15.40;99.90;;;;;;5065708;28;909;-45
2022/01/01 04:49:54;;;;;;;;;;;15.50;99.90;;;;;;5056482;28;1045;-45
2022/01/01 04:52:21;;;;;;;;;;;15.40;99.90;;;;;;5050385;28;1073;-45
2022/01/01 04:54:47;;;;;;;;;;;15.40;99.90;;;;;;5033878;28;841;-45
2022/01/01 04:57:13;;;;;;;;;;;15.40;99.90;;;;;;5073907;28;1973;-45
2022/01/01 04:59:40;;;;;;;;;;;15.40;99.90;;;;;;5073255;28;1540;-45
2022/01/01 05:02:06;;;;;;;;;;;15.40;99.90;;;;;;5042609;28;1153;-45
2022/01/01 05:04:32;;;;;;;;;;;15.40;99.90;;;;;;5056533;28;932;-45
2022/01/01 05:06:58;;;;;;;;;;;15.40;99.90;;;;;;5056277;28;899;-45
2022/01/01 05:09:28;;;;;;;;;;;15.40;99.90;;;;;;5056192;28;835;-45
2022/01/01 05:11:55;;;;;;;;;;;15.40;99.90;;;;;;5072924;28;986;-45
2022/01/01 05:14:23;;;;;;;;;;;15.40;99.90;;;;;;5076855;28;1257;-45
2022/01/01 05:16:51;;;;;;;;;;;15.40;99.90;;;;;;5076862;28;1913;-45
2022/01/01 05:19:19;;;;;;;;;;;15.40;99.90;;;;;;5077019;28;773;-45
2022/01/01 05:21:46;;;;;;;;;;;15.40;99.90;;;;;;5073847;28;1292;-45
2022/01/01 05:24:18;;;;;;;;;;;15.40;99.90;;;;;;5076939;28;1006;-45
2022/01/01 05:26:44;;;;;;;;;;;15.40;99.90;;;;;;5054353;28;939;-45
2022/01/01 05:29:10;;;;;;;;;;;15.40;99.90;;;;;;5029516;28;856;-45
2022/01/01 05:31:36;;;;;;;;;;;15.40;99.90;;;;;;5035744;28;836;-45
2022/01/01 05:34:03;;;;;;;;;;;15.40;99.90;;;;;;5035670;28;882;-45
2022/01/01 05:36:29;;;;;;;;;;;15.30;99.90;;;;;;5054027;28;834;-45
2022/01/01 05:38:56;;;;;;;;;;;15.30;99.90;;;;;;5053986;28;1906;-45
2022/01/01 05:41:23;;;;;;;;;;;15.30;99.90;;;;;;5053786;28;904;-45
2022/01/01 05:43:50;;;;;;;;;;;15.30;99.90;;;;;;5053791;28;862;-45
2022/01/01 05:46:16;;;;;;;;;;;15.30;99.90;;;;;;5053940;28;931;-55
2022/01/01 05:48:42;;;;;;;;;;;15.30;99.90;;;;;;5053676;28;1257;-55
2022/01/01 05:51:08;;;;;;;;;;;15.30;99.90;;;;;;5053560;28;923;-55
2022/01/01 05:53:34;;;;;;;;;;;15.30;99.90;;;;;;5035193;28;1302;-55
2022/01/01 05:56:00;;;;;;;;;;;15.30;99.90;;;;;;5035454;28;864;-55
2022/01/01 05:58:27;;;;;;;;;;;15.30;99.90;;;;;;5062767;28;1910;-55
2022/01/01 06:00:55;;;;;;;;;;;15.30;99.90;;;;;;5076046;28;820;-55
2022/01/01 06:03:22;;;;;;;;;;;15.30;99.90;;;;;;5076093;28;856;-55
2022/01/01 06:05:51;;;;;;;;;;;15.30;99.90;;;;;;5074453;28;1261;-55
2022/01/01 06:08:18;;;;;;;;;;;15.30;99.90;;;;;;5076193;28;1010;-55
2022/01/01 06:10:45;;;;;;;;;;;15.30;99.90;;;;;;5076100;28;817;-55
2022/01/01 06:13:11;;;;;;;;;;;15.20;99.90;;;;;;5075964;28;883;-55
2022/01/01 06:15:36;;;;;;;;;;;15.20;99.90;;;;;;5074995;28;908;-55
2022/01/01 06:18:02;;;;;;;;;;;15.20;99.90;;;;;;5075855;28;1910;-55
2022/01/01 06:20:30;;;;;;;;;;;15.20;99.90;;;;;;5075708;28;801;-55
2022/01/01 06:22:57;;;;;;;;;;;15.20;99.90;;;;;;5075926;28;820;-55
2022/01/01 06:25:24;;;;;;;;;;;15.20;99.90;;;;;;5073703;28;1027;-55
2022/01/01 06:27:50;;;;;;;;;;;15.20;99.90;;;;;;5075889;28;922;-55
2022/01/01 06:30:17;;;;;;;;;;;15.20;99.90;;;;;;5075957;28;785;-55
2022/01/01 06:32:43;;;;;;;;;;;15.20;99.90;;;;;;5075834;28;785;-55
2022/01/01 06:35:09;;;;;;;;;;;15.20;99.90;;;;;;5075640;28;824;-55
2022/01/01 06:37:35;;;;;;;;;;;15.20;99.90;;;;;;5075701;28;1906;-55
2022/01/01 06:40:01;;;;;;;;;;;15.20;99.90;;;;;;5075716;28;836;-55
2022/01/01 06:42:28;;;;;;;;;;;15.20;99.90;;;;;;5075516;28;819;-55
2022/01/01 06:44:54;;;;;;;;;;;15.20;99.90;;;;;;5057640;28;958;-55
2022/01/01 06:47:20;;;;;;;;;;;15.20;99.90;;;;;;5075943;28;868;-55
2022/01/01 06:49:46;;;;;;;;;;;15.20;99.90;;;;;;5075417;28;844;-55
2022/01/01 06:52:12;;;;;;;;;;;15.20;99.90;;;;;;5075690;28;1147;-52
2022/01/01 06:54:38;;;;;;;;;;;15.10;99.90;;;;;;5076950;28;781;-55
2022/01/01 06:57:04;;;;;;;;;;;15.10;99.90;;;;;;5079501;28;1906;-55
2022/01/01 06:59:30;;;;;;;;;;;15.10;99.90;;;;;;5079511;28;754;-55
2022/01/01 07:01:57;;;;;;;;;;;15.10;99.90;;;;;;5079315;28;992;-55
2022/01/01 07:04:24;;;;;;;;;;;15.10;99.90;;;;;;5079336;28;864;-55
2022/01/01 07:06:50;;;;;;;;;;;15.10;99.90;;;;;;5079515;28;874;-55
2022/01/01 07:09:16;;;;;;;;;;;15.10;99.90;;;;;;5061374;28;1088;-55
2022/01/01 07:11:44;;;;;;;;;;;15.10;99.90;;;;;;5079383;28;899;-45
2022/01/01 07:14:11;;;;;;;;;;;15.10;99.90;;;;;;5079442;28;1022;-45
2022/01/01 07:16:38;;;;;;;;;;;15.10;99.90;;;;;;5076003;28;1467;-45
2022/01/01 07:19:04;;;;;;;;;;;15.10;99.90;;;;;;5078977;28;1902;-45
2022/01/01 07:21:30;;;;;;;;;;;15.10;99.90;;;;;;5079061;28;823;-45
2022/01/01 07:23:56;;;;;;;;;;;15.10;99.90;;;;;;5078610;28;880;-45
2022/01/01 07:26:22;;;;;;;;;;;15.10;99.90;;;;;;5079024;28;864;-45
2022/01/01 07:28:48;;;;;;;;;;;15.10;99.90;;;;;;5079021;28;795;-55
2022/01/01 07:31:17;;;;;;;;;;;15.10;99.90;;;;;;5078965;28;1664;-55
2022/01/01 07:33:44;;;;;;;;;;;15.20;99.90;;;;;;5078592;28;1066;-56
2022/01/01 07:36:11;;;;;;;;;;;15.20;99.90;;;;;;5077921;28;866;-55
2022/01/01 07:38:39;;;;;;;;;;;15.30;99.90;;;;;;5078739;28;1910;-55
2022/01/01 07:41:05;;;;;;;;;;;15.30;99.90;;;;;;5078622;28;1303;-56
2022/01/01 07:43:32;;;;;;;;;;;15.40;99.90;;;;;;5078481;28;925;-55
2022/01/01 07:45:57;;;;;;;;;;;15.40;99.90;;;;;;5078684;28;1096;-55
2022/01/01 07:48:23;;;;;;;;;;;15.40;99.90;;;;;;5078622;28;883;-56
2022/01/01 07:50:49;;;;;;;;;;;15.50;99.90;;;;;;5077521;28;873;-55
2022/01/01 07:53:17;;;;;;;;;;;15.50;99.90;;;;;;5078132;28;1180;-55
2022/01/01 07:55:44;;;;;;;;;;;15.60;99.90;;;;;;5078176;28;1033;-55
2022/01/01 07:58:13;;;;;;;;;;;15.60;99.90;;;;;;5078139;28;1922;-55
2022/01/01 08:00:40;;;;;;;;;;;15.70;99.90;;;;;;5078575;28;802;-55
2022/01/01 08:03:06;;;;;;;;;;;15.80;99.90;;;;;;5077451;28;900;-55
2022/01/01 08:05:32;;;;;;;;;;;15.80;99.90;;;;;;5076802;28;1234;-55
2022/01/01 08:07:58;;;;;;;;;;;15.90;99.90;;;;;;5076767;28;1463;-55
2022/01/01 08:10:24;;;;;;;;;;;15.90;99.90;;;;;;5078616;28;1012;-55
2022/01/01 08:12:50;;;;;;;;;;;16.00;99.90;;;;;;5077587;28;1022;-55
2022/01/01 08:15:16;;;;;;;;;;;16.00;99.90;;;;;;5078341;28;938;-55
2022/01/01 08:17:44;;;;;;;;;;;16.10;99.90;;;;;;5077890;28;1990;-55
2022/01/01 08:20:10;;;;;;;;;;;16.20;99.90;;;;;;5074114;28;872;-55
2022/01/01 08:22:37;;;;;;;;;;;16.20;99.90;;;;;;5074694;28;786;-55
2022/01/01 08:25:03;;;;;;;;;;;16.30;99.90;;;;;;5073908;28;944;-55
2022/01/01 08:27:29;;;;;;;;;;;16.30;99.90;;;;;;5077823;28;2088;-55
2022/01/01 08:29:55;;;;;;;;;;;16.40;99.90;;;;;;5077711;28;1001;-55
2022/01/01 08:32:21;;;;;;;;;;;16.40;99.90;;;;;;5077447;28;860;-55
2022/01/01 08:34:47;;;;;;;;;;;16.40;99.90;;;;;;5077571;28;874;-55
2022/01/01 08:37:14;;;;;;;;;;;16.50;99.90;;;;;;5076858;28;869;-56
2022/01/01 08:39:41;;;;;;;;;;;16.50;99.90;;;;;;5077506;28;1965;-55
2022/01/01 08:42:09;;;;;;;;;;;16.50;99.90;;;;;;5077432;28;905;-55
2022/01/01 08:44:36;;;;;;;;;;;16.60;99.90;;;;;;5077733;28;801;-55
2022/01/01 08:47:02;;;;;;;;;;;16.60;99.90;;;;;;5077499;28;855;-55
2022/01/01 08:49:28;;;;;;;;;;;16.60;99.90;;;;;;5077286;28;754;-55
2022/01/01 08:51:55;;;;;;;;;;;16.70;99.90;;;;;;5077594;28;852;-55
2022/01/01 08:54:21;;;;;;;;;;;16.70;99.90;;;;;;5076934;28;1196;-55
2022/01/01 08:56:47;;;;;;;;;;;16.70;99.90;;;;;;5077283;28;788;-55
2022/01/01 08:59:16;;;;;;;;;;;16.70;99.90;;;;;;5076913;28;1902;-56
2022/01/01 09:01:43;;;;;;;;;;;16.80;99.90;;;;;;5059030;28;830;-56
2022/01/01 09:04:09;;;;;;;;;;;16.80;99.90;;;;;;5077245;28;844;-55
2022/01/01 09:06:35;;;;;;;;;;;16.80;99.90;;;;;;5077256;28;841;-55
2022/01/01 09:09:01;;;;;;;;;;;16.80;99.90;;;;;;5074192;28;1309;-55
2022/01/01 09:11:27;;;;;;;;;;;16.80;99.90;;;;;;5077167;28;822;-55
2022/01/01 09:13:53;;;;;;;;;;;16.80;99.90;;;;;;5076639;28;1035;-56
2022/01/01 09:16:20;;;;;;;;;;;16.80;99.90;;;;;;5076826;28;765;-55
2022/01/01 09:18:47;;;;;;;;;;;16.80;99.90;;;;;;5076700;28;1902;-56
2022/01/01 09:21:15;;;;;;;;;;;16.90;99.90;;;;;;5076571;28;864;-55
2022/01/01 09:23:42;;;;;;;;;;;16.90;99.90;;;;;;5076638;28;757;-56
2022/01/01 09:26:08;;;;;;;;;;;16.90;99.90;;;;;;5076377;28;954;-55
2022/01/01 09:28:34;;;;;;;;;;;16.90;99.90;;;;;;5076676;28;853;-55
2022/01/01 09:31:00;;;;;;;;;;;16.90;99.90;;;;;;5076448;28;963;-55
2022/01/01 09:33:31;;;;;;;;;;;16.90;99.90;;;;;;5076572;28;761;-56
2022/01/01 09:35:58;;;;;;;;;;;16.90;99.90;;;;;;5076476;28;773;-55
2022/01/01 09:38:24;;;;;;;;;;;16.90;99.90;;;;;;5076363;28;1953;-56
2022/01/01 09:40:52;;;;;;;;;;;16.90;99.90;;;;;;5076358;28;826;-55
2022/01/01 09:43:21;;;;;;;;;;;17.00;99.90;;;;;;5076250;28;856;-55
2022/01/01 09:45:52;;;;;;;;;;;17.00;99.90;;;;;;5076540;28;1731;-56
2022/01/01 09:48:21;;;;;;;;;;;17.00;99.90;;;;;;5076272;28;867;-55
2022/01/01 09:50:49;;;;;;;;;;;17.10;99.90;;;;;;5075181;28;854;-55
2022/01/01 09:53:17;;;;;;;;;;;17.10;99.90;;;;;;5074540;28;1552;-56
2022/01/01 09:55:45;;;;;;;;;;;17.10;99.90;;;;;;5076120;28;875;-46
2022/01/01 09:58:11;;;;;;;;;;;17.10;99.90;;;;;;5074348;28;1971;-45
2022/01/01 10:00:37;;;;;;;;;;;17.10;99.90;;;;;;5064081;28;1022;-45
2022/01/01 10:03:03;;;;;;;;;;;17.10;99.90;;;;;;5055343;28;967;-45
2022/01/01 10:05:29;;;;;;;;;;;17.20;99.90;;;;;;5053587;28;1287;-45
2022/01/01 10:07:59;;;;;;;;;;;17.20;99.90;;;;;;5064540;28;1176;-45
2022/01/01 10:10:26;;;;;;;;;;;17.20;99.90;;;;;;5073539;28;943;-45
2022/01/01 10:12:54;;;;;;;;;;;17.20;99.90;;;;;;5062057;28;855;-45
2022/01/01 10:15:22;;;;;;;;;;;17.20;99.90;;;;;;5054790;28;1066;-45
2022/01/01 10:17:49;;;;;;;;;;;17.20;99.90;;;;;;5054424;28;1898;-45
2022/01/01 10:20:17;;;;;;;;;;;17.30;99.90;;;;;;5021313;28;1648;-45
2022/01/01 10:22:44;;;;;;;;;;;17.30;99.90;;;;;;5054708;28;931;-45
2022/01/01 10:27:57;;;;;;;;;;;17.30;99.90;;;;;;5055771;28;810;-45
2022/01/01 10:30:31;;;;;;;;;;;17.30;99.90;;;;;;5059491;28;928;-45
2022/01/01 10:33:05;;;;;;;;;;;17.30;99.90;;;;;;5075830;28;856;-45
2022/01/01 10:35:39;;;;;;;;;;;17.30;99.90;;;;;;5074313;28;1353;-45
2022/01/01 10:38:09;;;;;;;;;;;17.30;99.90;;;;;;5072984;28;1977;-45
2022/01/01 10:40:34;;;;;;;;;;;17.30;99.90;;;;;;5075699;28;799;-45
2022/01/01 10:43:00;;;;;;;;;;;17.20;99.90;;;;;;5074621;28;1628;-46
2022/01/01 10:45:33;;;;;;;;;;;17.20;99.90;;;;;;5073562;28;1313;-46
2022/01/01 10:48:05;;;;;;;;;;;17.20;99.90;;;;;;5073889;28;974;-45
2022/01/01 10:50:31;;;;;;;;;;;17.20;99.90;;;;;;5075493;28;785;-45
2022/01/01 10:53:08;;;;;;;;;;;17.20;99.90;;;;;;5075482;28;1045;-45
2022/01/01 10:55:35;;;;;;;;;;;17.20;99.90;;;;;;5075668;28;825;-56
2022/01/01 10:58:02;;;;;;;;;;;17.20;99.90;;;;;;5075583;28;1902;-56
2022/01/01 11:00:28;;;;;;;;;;;17.20;99.90;;;;;;5075721;28;871;-45
2022/01/01 11:02:59;;;;;;;;;;;17.20;99.90;;;;;;5072412;28;1245;-56
2022/01/01 11:05:27;;;;;;;;;;;17.20;99.90;;;;;;5075984;28;1013;-45
2022/01/01 11:07:54;;;;;;;;;;;17.20;99.90;;;;;;5075643;28;809;-45
2022/01/01 11:10:23;;;;;;;;;;;17.20;99.90;;;;;;5074500;28;955;-56
2022/01/01 11:12:54;;;;;;;;;;;17.20;99.90;;;;;;5074567;28;799;-45
2022/01/01 11:15:21;;;;;;;;;;;17.20;99.90;;;;;;5075273;28;818;-45
2022/01/01 11:17:48;;;;;;;;;;;17.20;99.90;;;;;;5075185;28;1898;-45
2022/01/01 11:20:16;;;;;;;;;;;17.20;99.90;;;;;;5074910;28;898;-45
2022/01/01 11:22:42;;;;;;;;;;;17.20;99.90;;;;;;5075285;28;883;-45
2022/01/01 11:25:08;;;;;;;;;;;17.20;99.90;;;;;;5073974;28;1260;-45
2022/01/01 11:27:35;;;;;;;;;;;17.20;99.90;;;;;;5075427;28;797;-45
2022/01/01 11:30:03;;;;;;;;;;;17.30;99.90;;;;;;5074561;28;918;-45
2022/01/01 11:32:37;;;;;;;;;;;17.20;99.90;;;;;;5073836;28;1173;-45
2022/01/01 11:35:11;;;;;;;;;;;17.30;99.90;;;;;;5075023;28;877;-45
2022/01/01 11:37:54;;;;;;;;;;;17.30;99.90;;;;;;5075171;28;815;-56
2022/01/01 11:40:21;;;;;;;;;;;17.30;99.90;;;;;;5074762;28;1410;-56
2022/01/01 11:42:47;;;;;;;;;;;17.30;99.90;;;;;;5078626;28;871;-45
2022/01/01 11:45:33;;;;;;;;;;;17.40;99.90;;;;;;5078717;28;805;-45
2022/01/01 11:48:18;;;;;;;;;;;17.40;99.90;;;;;;5078549;28;1193;-45
2022/01/01 11:50:44;;;;;;;;;;;17.40;99.90;;;;;;5074482;28;774;-45
2022/01/01 11:53:26;;;;;;;;;;;17.50;99.90;;;;;;5078418;28;1006;-46
2022/01/01 11:56:09;;;;;;;;;;;17.40;99.90;;;;;;5077041;28;1038;-45
2022/01/01 11:58:48;;;;;;;;;;;17.50;99.90;;;;;;5078084;28;1971;-46
2022/01/01 12:01:18;;;;;;;;;;;17.50;99.90;;;;;;5078325;28;765;-46
2022/01/01 12:03:52;;;;;;;;;;;17.50;99.90;;;;;;5060094;28;1100;-45
2022/01/01 12:06:19;;;;;;;;;;;17.50;99.90;;;;;;5078383;28;804;-55
2022/01/01 12:08:46;;;;;;;;;;;17.40;99.90;;;;;;5075707;28;1297;-56
2022/01/01 12:11:31;;;;;;;;;;;17.40;99.90;;;;;;5074370;28;938;-56
2022/01/01 12:14:00;;;;;;;;;;;17.50;99.90;;;;;;5076416;28;880;-45
2022/01/01 12:16:29;;;;;;;;;;;17.40;99.90;;;;;;5078012;28;894;-46
2022/01/01 12:19:04;;;;;;;;;;;17.40;99.90;;;;;;5078186;28;1905;-56
2022/01/01 12:21:40;;;;;;;;;;;17.40;99.90;;;;;;5075851;28;892;-55
2022/01/01 12:24:09;;;;;;;;;;;17.40;99.90;;;;;;5077995;28;782;-56
2022/01/01 12:26:35;;;;;;;;;;;17.50;99.90;;;;;;5077855;28;829;-45
2022/01/01 12:29:06;;;;;;;;;;;17.40;99.90;;;;;;5077644;28;928;-55
2022/01/01 12:31:32;;;;;;;;;;;17.40;99.90;;;;;;5077677;28;1720;-45
2022/01/01 12:34:09;;;;;;;;;;;17.50;99.90;;;;;;5078011;28;796;-45
2022/01/01 12:36:35;;;;;;;;;;;17.50;99.90;;;;;;5077936;28;774;-45
2022/01/01 12:39:07;;;;;;;;;;;17.40;99.90;;;;;;5077438;28;2000;-45
2022/01/01 12:41:34;;;;;;;;;;;17.40;99.90;;;;;;5077867;28;852;-56
2022/01/01 12:44:02;;;;;;;;;;;17.40;99.90;;;;;;5074808;28;882;-55
2022/01/01 12:46:33;;;;;;;;;;;17.40;99.90;;;;;;5075015;28;967;-56
2022/01/01 12:49:02;;;;;;;;;;;17.40;99.90;;;;;;5077385;28;949;-45
2022/01/01 12:51:32;;;;;;;;;;;17.40;99.90;;;;;;5077465;28;1021;-45
2022/01/01 12:54:02;;;;;;;;;;;17.40;99.90;;;;;;5076239;28;1425;-56
2022/01/01 12:56:31;;;;;;;;;;;17.40;99.90;;;;;;5077316;28;855;-55
2022/01/01 12:59:00;;;;;;;;;;;17.40;99.90;;;;;;5077255;28;1914;-55
2022/01/01 13:01:44;;;;;;;;;;;17.40;99.90;;;;;;5051388;28;1332;-56
2022/01/01 13:04:11;;;;;;;;;;;17.40;99.90;;;;;;5074468;28;1072;-56
2022/01/01 13:06:41;;;;;;;;;;;17.40;99.90;;;;;;5077025;28;1031;-56
2022/01/01 13:09:30;;;;;;;;;;;17.40;99.90;;;;;;5077051;28;1063;-56
2022/01/01 13:12:01;;;;;;;;;;;17.40;99.90;;;;;;5077182;28;935;-55
2022/01/01 13:14:28;;;;;;;;;;;17.40;99.90;;;;;;5073493;28;913;-56
2022/01/01 13:16:55;;;;;;;;;;;17.30;99.90;;;;;;5077079;28;1148;-45
2022/01/01 13:19:21;;;;;;;;;;;17.30;99.90;;;;;;5076810;28;1910;-55
2022/01/01 13:21:47;;;;;;;;;;;17.30;99.90;;;;;;5076959;28;777;-45
2022/01/01 13:24:17;;;;;;;;;;;17.30;99.90;;;;;;5074580;28;802;-56
2022/01/01 13:26:44;;;;;;;;;;;17.30;99.90;;;;;;5075095;28;774;-55
2022/01/01 13:29:11;;;;;;;;;;;17.30;99.90;;;;;;5076430;28;797;-56
2022/01/01 13:31:37;;;;;;;;;;;17.30;99.90;;;;;;5074606;28;913;-46
2022/01/01 13:34:04;;;;;;;;;;;17.30;99.90;;;;;;5076886;28;1084;-45
2022/01/01 13:36:48;;;;;;;;;;;17.20;99.90;;;;;;5076320;28;845;-55
2022/01/01 13:39:17;;;;;;;;;;;17.30;99.90;;;;;;5072280;28;1883;-45
2022/01/01 13:41:48;;;;;;;;;;;17.20;99.90;;;;;;5076348;28;805;-46
2022/01/01 13:44:31;;;;;;;;;;;17.30;99.90;;;;;;5072577;28;785;-45
2022/01/01 13:47:01;;;;;;;;;;;17.30;99.90;;;;;;5076660;28;965;-55
2022/01/01 13:49:37;;;;;;;;;;;17.30;99.90;;;;;;5076590;28;786;-54
2022/01/01 13:52:03;;;;;;;;;;;17.30;99.90;;;;;;5076172;28;771;-55
2022/01/01 13:54:34;;;;;;;;;;;17.30;99.90;;;;;;5075909;28;1050;-45
2022/01/01 13:57:05;;;;;;;;;;;17.30;99.90;;;;;;5074904;28;1013;-45
2022/01/01 13:59:31;;;;;;;;;;;17.30;99.90;;;;;;5093397;28;1910;-45
2022/01/01 14:01:57;;;;;;;;;;;17.30;99.90;;;;;;5092988;28;934;-45
2022/01/01 14:04:24;;;;;;;;;;;17.30;99.90;;;;;;5093331;28;978;-45
2022/01/01 14:07:11;;;;;;;;;;;17.30;99.90;;;;;;5093657;28;1195;-45
2022/01/01 14:09:56;;;;;;;;;;;17.20;99.90;;;;;;5089911;28;949;-55
2022/01/01 14:12:22;;;;;;;;;;;17.20;99.90;;;;;;5094694;28;816;-55
2022/01/01 14:14:47;;;;;;;;;;;17.20;99.90;;;;;;5094535;28;816;-55
2022/01/01 14:17:14;;;;;;;;;;;17.20;99.90;;;;;;5077561;28;853;-55
2022/01/01 14:19:41;;;;;;;;;;;17.20;99.90;;;;;;5094523;28;1977;-55
2022/01/01 14:22:10;;;;;;;;;;;17.20;99.90;;;;;;5094432;28;896;-55
2022/01/01 14:24:57;;;;;;;;;;;17.20;99.90;;;;;;5077747;28;929;-55
2022/01/01 14:27:23;;;;;;;;;;;17.20;99.90;;;;;;5093503;28;1073;-45
2022/01/01 14:29:50;;;;;;;;;;;17.20;99.90;;;;;;5089489;28;1027;-45
2022/01/01 14:32:17;;;;;;;;;;;17.20;99.90;;;;;;5075752;28;883;-45
2022/01/01 14:34:45;;;;;;;;;;;17.20;99.90;;;;;;5076010;28;864;-55
2022/01/01 14:37:11;;;;;;;;;;;17.10;99.90;;;;;;5075025;28;805;-55
2022/01/01 14:39:38;;;;;;;;;;;17.10;99.90;;;;;;5075846;28;1910;-45
2022/01/01 14:42:05;;;;;;;;;;;17.10;99.90;;;;;;5075749;28;876;-55
2022/01/01 14:44:31;;;;;;;;;;;17.10;99.90;;;;;;5075573;28;785;-55
2022/01/01 14:47:01;;;;;;;;;;;17.10;99.90;;;;;;5075720;28;855;-45
2022/01/01 14:49:30;;;;;;;;;;;17.10;99.90;;;;;;5075588;28;871;-45